Time;durP1;ratioP1;P1;durP2;ratioP2;P2;SDS_P1;SDS_P2;PMS_P1;PMS_P2;Temp;Humidity;BMP_temperature;BMP_pressure;BME280_temperature;BME280_humidity;BME280_pressure;Samples;Min_cycle;Max_cycle;Signal;HPM_P1;HPM_P2
2024/04/03 00:00:46;;;;;;;8.30;2.57;;;10.20;67.60;;;;;;5004682;28;20201;-73
2024/04/03 00:03:12;;;;;;;5.40;1.33;;;10.10;67.90;;;;;;5007494;28;20197;-72
2024/04/03 00:05:38;;;;;;;3.03;1.30;;;10.10;68.00;;;;;;5005409;28;20267;-75
2024/04/03 00:08:04;;;;;;;3.33;1.50;;;10.10;68.00;;;;;;5007116;28;20216;-74
2024/04/03 00:10:30;;;;;;;4.87;1.70;;;10.10;68.00;;;;;;5004962;28;20476;-73
2024/04/03 00:12:55;;;;;;;9.13;1.83;;;10.10;67.90;;;;;;5002855;28;20495;-75
2024/04/03 00:15:21;;;;;;;4.10;1.83;;;10.10;68.00;;;;;;5010105;28;20436;-73
2024/04/03 00:17:47;;;;;;;3.60;1.63;;;10.10;67.90;;;;;;5004347;28;20218;-73
2024/04/03 00:20:13;;;;;;;4.50;1.70;;;10.20;67.70;;;;;;5007022;28;20435;-73
2024/04/03 00:22:38;;;;;;;6.13;1.53;;;10.10;67.90;;;;;;4997990;28;20225;-74
2024/04/03 00:25:05;;;;;;;2.50;1.50;;;10.20;67.70;;;;;;5008380;28;20654;-75
2024/04/03 00:27:31;;;;;;;2.37;1.57;;;10.20;67.60;;;;;;5009317;28;20602;-74
2024/04/03 00:29:56;;;;;;;3.60;1.80;;;10.10;68.00;;;;;;5011575;28;20417;-74
2024/04/03 00:32:22;;;;;;;3.87;1.67;;;10.20;67.70;;;;;;5007160;28;20460;-73
2024/04/03 00:34:52;;;;;;;4.60;1.67;;;10.00;68.00;;;;;;5011923;28;20190;-74
2024/04/03 00:37:18;;;;;;;6.40;1.90;;;10.10;68.20;;;;;;5015873;28;20202;-74
2024/04/03 00:39:44;;;;;;;5.33;1.70;;;10.20;68.20;;;;;;5019136;28;20421;-75
2024/04/03 00:42:10;;;;;;;2.90;1.40;;;10.30;68.20;;;;;;5005797;28;20479;-74
2024/04/03 00:44:36;;;;;;;5.67;2.30;;;10.30;68.20;;;;;;5010856;28;20196;-76
2024/04/03 00:47:02;;;;;;;6.13;1.93;;;10.30;68.00;;;;;;5007355;28;20229;-72
2024/04/03 00:49:29;;;;;;;3.00;1.47;;;10.30;67.90;;;;;;5012435;28;20182;-74
2024/04/03 00:51:55;;;;;;;7.23;2.30;;;10.30;67.60;;;;;;5008476;28;20464;-76
2024/04/03 00:54:22;;;;;;;3.03;1.60;;;10.30;67.50;;;;;;5010496;28;20571;-73
2024/04/03 00:56:48;;;;;;;3.47;1.50;;;10.20;67.60;;;;;;5006383;28;20205;-73
2024/04/03 00:59:16;;;;;;;5.10;2.17;;;10.20;67.90;;;;;;5001829;28;20444;-75
2024/04/03 01:01:41;;;;;;;5.77;1.70;;;10.10;68.20;;;;;;5006306;28;20206;-75
2024/04/03 01:04:07;;;;;;;3.03;1.37;;;10.00;68.30;;;;;;5010024;28;20441;-74
2024/04/03 01:06:34;;;;;;;3.60;1.40;;;10.00;68.30;;;;;;5009246;28;20441;-74
2024/04/03 01:09:00;;;;;;;6.60;1.60;;;9.90;68.50;;;;;;5015888;28;20190;-74
2024/04/03 01:11:26;;;;;;;3.77;1.60;;;9.80;68.60;;;;;;4998667;28;20843;-74
2024/04/03 01:13:52;;;;;;;3.67;1.63;;;9.70;68.60;;;;;;5004388;28;20194;-74
2024/04/03 01:16:17;;;;;;;3.43;1.70;;;9.70;68.80;;;;;;5000020;28;20520;-74
2024/04/03 01:18:43;;;;;;;6.83;1.50;;;9.70;68.90;;;;;;5007582;28;20424;-74
2024/04/03 01:21:08;;;;;;;5.77;2.17;;;9.70;68.60;;;;;;5002933;28;20225;-73
2024/04/03 01:23:34;;;;;;;4.33;1.77;;;9.70;68.60;;;;;;5005520;28;20281;-74
2024/04/03 01:26:00;;;;;;;3.80;1.70;;;9.60;68.60;;;;;;5005700;28;20213;-75
2024/04/03 01:28:27;;;;;;;3.30;1.80;;;9.70;68.80;;;;;;5007055;28;20185;-74
2024/04/03 01:30:52;;;;;;;2.13;1.43;;;9.70;68.60;;;;;;5008214;28;20185;-72
2024/04/03 01:33:18;;;;;;;3.47;1.70;;;9.70;68.60;;;;;;5006828;28;20425;-73
2024/04/03 01:35:43;;;;;;;3.63;1.50;;;9.70;68.60;;;;;;5004953;28;20192;-72
2024/04/03 01:38:12;;;;;;;2.37;1.30;;;9.80;68.60;;;;;;5005983;28;20221;-74
2024/04/03 01:40:37;;;;;;;2.60;1.50;;;9.90;68.50;;;;;;5004289;28;20183;-75
2024/04/03 01:43:03;;;;;;;4.20;1.60;;;9.80;68.50;;;;;;5000227;28;20436;-74
2024/04/03 01:45:29;;;;;;;6.10;2.00;;;9.80;68.60;;;;;;5011993;28;20197;-73
2024/04/03 01:47:54;;;;;;;5.50;1.57;;;9.90;68.30;;;;;;5013463;28;20194;-73
2024/04/03 01:50:32;;;;;;;2.70;1.40;;;9.80;68.50;;;;;;5004310;28;20600;-74
2024/04/03 01:52:58;;;;;;;2.43;1.00;;;9.80;68.50;;;;;;5004564;28;20249;-72
2024/04/03 01:55:23;;;;;;;4.63;1.60;;;9.80;68.50;;;;;;5010612;28;20478;-73
2024/04/03 01:57:49;;;;;;;2.70;1.60;;;9.80;68.30;;;;;;5009595;28;20252;-74
2024/04/03 02:00:15;;;;;;;3.10;1.70;;;9.90;68.20;;;;;;5008057;28;20445;-73
2024/04/03 02:02:40;;;;;;;6.90;2.30;;;9.90;68.20;;;;;;5004996;28;20210;-71
2024/04/03 02:05:06;;;;;;;4.30;1.70;;;9.80;68.50;;;;;;5008987;28;20182;-74
2024/04/03 02:07:32;;;;;;;2.97;1.50;;;9.70;68.50;;;;;;5023465;28;20538;-72
2024/04/03 02:09:57;;;;;;;5.17;1.80;;;9.60;68.60;;;;;;5030574;28;20190;-72
2024/04/03 02:12:23;;;;;;;3.03;1.70;;;9.60;69.10;;;;;;5016621;28;20226;-72
2024/04/03 02:14:48;;;;;;;4.10;1.37;;;9.70;68.60;;;;;;5019948;28;20185;-73
2024/04/03 02:17:14;;;;;;;2.90;1.27;;;9.70;68.50;;;;;;5021340;28;20249;-72
2024/04/03 02:19:39;;;;;;;5.43;1.43;;;9.70;68.50;;;;;;5010575;28;20190;-74
2024/04/03 02:22:05;;;;;;;3.40;1.50;;;9.70;68.60;;;;;;5008660;28;20308;-73
2024/04/03 02:24:31;;;;;;;4.27;1.80;;;9.60;68.60;;;;;;5007007;28;20193;-74
2024/04/03 02:26:56;;;;;;;3.17;1.50;;;9.60;68.80;;;;;;5006956;28;20243;-73
2024/04/03 02:29:22;;;;;;;3.10;1.50;;;9.50;69.10;;;;;;5010747;28;20702;-74
2024/04/03 02:31:48;;;;;;;2.70;1.40;;;9.50;69.20;;;;;;5010112;28;20212;-75
2024/04/03 02:34:14;;;;;;;3.20;1.47;;;9.50;69.10;;;;;;5013829;28;20439;-73
2024/04/03 02:36:40;;;;;;;4.10;1.40;;;9.50;69.20;;;;;;5011184;28;20213;-75
2024/04/03 02:39:05;;;;;;;3.33;1.97;;;9.60;69.20;;;;;;5007267;28;20428;-75
2024/04/03 02:41:31;;;;;;;3.03;1.70;;;9.60;69.10;;;;;;5008657;28;20198;-74
2024/04/03 02:43:56;;;;;;;3.00;1.63;;;9.60;69.10;;;;;;5022291;28;20214;-75
2024/04/03 02:46:22;;;;;;;6.80;1.80;;;9.70;68.80;;;;;;5008434;28;20186;-74
2024/04/03 02:48:48;;;;;;;3.30;1.53;;;9.80;68.60;;;;;;5010326;28;20659;-74
2024/04/03 02:51:13;;;;;;;3.53;1.67;;;9.80;68.60;;;;;;5003934;28;20859;-75
2024/04/03 02:53:39;;;;;;;4.10;1.63;;;9.80;68.60;;;;;;5009749;28;20179;-73
2024/04/03 02:56:06;;;;;;;1.60;1.20;;;9.80;68.60;;;;;;5010904;28;20177;-74
2024/04/03 02:58:33;;;;;;;3.07;1.70;;;9.80;68.80;;;;;;5009361;28;20505;-74
2024/04/03 03:01:09;;;;;;;3.17;1.60;;;9.80;68.50;;;;;;5004553;28;20516;-73
2024/04/03 03:03:37;;;;;;;3.60;1.57;;;9.80;68.50;;;;;;5006038;28;20448;-74
2024/04/03 03:06:04;;;;;;;2.23;1.47;;;9.70;68.80;;;;;;5013502;28;20452;-75
2024/04/03 03:08:31;;;;;;;3.37;1.60;;;9.60;69.10;;;;;;5008548;28;20433;-74
2024/04/03 03:10:58;;;;;;;2.73;1.57;;;9.60;69.20;;;;;;5004606;28;20560;-71
2024/04/03 03:13:26;;;;;;;3.87;1.73;;;9.70;69.10;;;;;;5001506;28;20444;-74
2024/04/03 03:16:01;;;;;;;2.50;1.50;;;9.70;68.80;;;;;;5008571;28;20433;-74
2024/04/03 03:18:29;;;;;;;4.37;1.80;;;9.60;68.80;;;;;;5011571;28;20444;-72
2024/04/03 03:20:55;;;;;;;2.40;1.70;;;9.70;69.10;;;;;;5009270;28;20436;-73
2024/04/03 03:23:20;;;;;;;4.23;1.57;;;9.70;68.80;;;;;;5009036;28;20421;-74
2024/04/03 03:25:48;;;;;;;3.50;1.80;;;9.70;68.60;;;;;;5012453;28;20436;-73
2024/04/03 03:28:14;;;;;;;3.53;1.60;;;9.80;68.80;;;;;;5013942;28;20193;-72
2024/04/03 03:30:40;;;;;;;4.17;2.00;;;9.70;68.80;;;;;;5016022;28;20424;-74
2024/04/03 03:33:06;;;;;;;3.23;1.87;;;9.70;69.10;;;;;;5014043;28;20455;-71
2024/04/03 03:35:32;;;;;;;4.27;1.60;;;9.70;68.80;;;;;;5018019;28;20212;-72
2024/04/03 03:37:58;;;;;;;3.53;1.40;;;9.80;68.80;;;;;;5010996;28;20217;-71
2024/04/03 03:40:24;;;;;;;3.13;1.80;;;9.90;68.30;;;;;;5019353;28;20436;-73
2024/04/03 03:42:49;;;;;;;3.73;1.53;;;9.80;68.50;;;;;;5013221;28;20526;-74
2024/04/03 03:45:20;;;;;;;2.60;1.60;;;9.80;68.80;;;;;;5013729;28;20937;-74
2024/04/03 03:47:46;;;;;;;8.33;1.93;;;9.90;68.60;;;;;;5015665;28;20702;-74
2024/04/03 03:52:56;;;;;;;8.80;2.10;;;9.90;68.60;;;;;;5007546;28;20471;-72
2024/04/03 03:55:22;;;;;;;5.80;1.80;;;9.90;68.20;;;;;;5005355;28;20421;-74
2024/04/03 03:57:48;;;;;;;2.27;1.50;;;9.90;68.30;;;;;;5010738;28;20201;-72
2024/04/03 04:00:13;;;;;;;2.53;1.43;;;9.90;68.30;;;;;;5010701;28;20193;-74
2024/04/03 04:02:39;;;;;;;6.43;1.60;;;9.90;68.50;;;;;;5004988;28;20273;-73
2024/04/03 04:05:05;;;;;;;4.10;1.90;;;9.80;68.60;;;;;;5014682;28;20196;-74
2024/04/03 04:07:32;;;;;;;4.13;1.53;;;9.80;68.30;;;;;;5010787;28;20289;-75
2024/04/03 04:09:58;;;;;;;3.10;1.40;;;9.80;68.20;;;;;;5007898;28;20214;-73
2024/04/03 04:12:23;;;;;;;2.53;1.70;;;9.80;68.30;;;;;;5004049;28;20476;-74
2024/04/03 04:14:51;;;;;;;3.17;1.50;;;9.80;68.30;;;;;;5005539;28;20186;-74
2024/04/03 04:17:17;;;;;;;3.23;1.67;;;9.80;68.30;;;;;;5006110;28;21064;-74
2024/04/03 04:19:43;;;;;;;7.40;1.70;;;9.80;67.90;;;;;;5002338;28;20966;-74
2024/04/03 04:22:08;;;;;;;2.27;1.33;;;9.80;68.30;;;;;;5001399;28;20480;-74
2024/04/03 04:24:36;;;;;;;2.27;1.47;;;9.80;68.20;;;;;;5009409;28;20249;-74
2024/04/03 04:27:05;;;;;;;5.03;1.60;;;9.80;68.20;;;;;;5004870;28;20190;-74
2024/04/03 04:29:31;;;;;;;3.87;1.63;;;9.90;68.20;;;;;;5004058;28;20430;-74
2024/04/03 04:31:59;;;;;;;3.00;1.70;;;9.90;68.20;;;;;;5006463;28;20464;-74
2024/04/03 04:34:26;;;;;;;4.77;1.80;;;9.90;68.30;;;;;;5006761;28;20421;-74
2024/04/03 04:36:51;;;;;;;3.33;1.43;;;9.90;67.90;;;;;;5007514;28;20461;-74
2024/04/03 04:39:17;;;;;;;3.17;1.60;;;9.80;68.20;;;;;;5004858;28;20544;-74
2024/04/03 04:41:42;;;;;;;5.87;1.77;;;9.90;68.20;;;;;;5010719;28;20296;-73
2024/04/03 04:44:08;;;;;;;2.90;1.47;;;9.90;68.00;;;;;;5012258;28;20544;-74
2024/04/03 04:46:33;;;;;;;3.33;1.33;;;9.90;68.00;;;;;;5007902;28;20193;-74
2024/04/03 04:48:59;;;;;;;2.77;1.50;;;9.80;68.30;;;;;;5013563;28;20689;-75
2024/04/03 04:51:25;;;;;;;3.30;1.57;;;9.80;68.50;;;;;;5008528;28;20300;-74
2024/04/03 04:53:50;;;;;;;2.37;1.60;;;9.90;68.30;;;;;;5016016;28;20197;-73
2024/04/03 04:56:16;;;;;;;4.33;1.50;;;10.00;68.30;;;;;;5020602;28;20221;-74
2024/04/03 04:58:41;;;;;;;7.83;1.90;;;10.00;68.00;;;;;;5008668;28;20213;-74
2024/04/03 05:01:08;;;;;;;4.20;2.23;;;9.90;68.20;;;;;;5011214;28;20218;-74
2024/04/03 05:03:36;;;;;;;4.30;2.30;;;10.00;68.00;;;;;;5005224;28;20216;-74
2024/04/03 05:06:03;;;;;;;4.40;1.73;;;9.90;68.20;;;;;;5013520;28;20984;-73
2024/04/03 05:08:31;;;;;;;4.90;2.00;;;9.90;68.30;;;;;;5010799;28;20428;-73
2024/04/03 05:10:58;;;;;;;2.50;1.33;;;9.90;68.30;;;;;;5010360;28;20447;-72
2024/04/03 05:13:25;;;;;;;7.03;1.50;;;10.00;68.20;;;;;;5009332;28;20421;-73
2024/04/03 05:15:51;;;;;;;4.80;2.00;;;10.10;68.00;;;;;;5009978;28;20472;-73
2024/04/03 05:18:17;;;;;;;6.30;1.80;;;10.00;68.00;;;;;;5012279;28;20520;-74
2024/04/03 05:20:43;;;;;;;3.03;1.63;;;10.00;68.30;;;;;;5012136;28;20255;-71
2024/04/03 05:23:08;;;;;;;8.40;1.90;;;10.00;68.20;;;;;;5006225;28;20458;-72
2024/04/03 05:25:34;;;;;;;4.43;1.60;;;10.10;68.20;;;;;;5014847;28;20197;-74
2024/04/03 05:28:00;;;;;;;4.83;1.83;;;10.10;67.90;;;;;;5011662;28;20769;-74
2024/04/03 05:30:25;;;;;;;3.60;1.43;;;10.10;68.00;;;;;;5017612;28;20654;-75
2024/04/03 05:32:51;;;;;;;3.67;1.80;;;10.00;68.00;;;;;;5007182;28;20213;-74
2024/04/03 05:35:19;;;;;;;4.20;1.40;;;10.10;68.00;;;;;;5017814;28;20337;-75
2024/04/03 05:37:45;;;;;;;5.40;1.90;;;10.20;68.00;;;;;;5017123;28;20955;-77
2024/04/03 05:40:12;;;;;;;4.50;1.97;;;10.20;67.70;;;;;;5018591;28;20448;-77
2024/04/03 05:42:38;;;;;;;2.80;1.70;;;10.20;67.70;;;;;;5012086;28;20504;-77
2024/04/03 05:45:04;;;;;;;4.00;1.87;;;10.30;67.30;;;;;;5013921;28;20427;-77
2024/04/03 05:47:32;;;;;;;7.10;1.43;;;10.20;67.30;;;;;;5008143;28;20456;-76
2024/04/03 05:49:58;;;;;;;4.80;1.50;;;10.20;67.30;;;;;;5011815;28;20526;-77
2024/04/03 05:52:24;;;;;;;2.20;1.13;;;10.40;66.10;;;;;;5005695;28;20468;-75
2024/04/03 05:54:50;;;;;;;4.13;2.03;;;10.60;66.30;;;;;;5012494;28;20417;-77
2024/04/03 05:57:19;;;;;;;3.40;1.47;;;10.60;65.40;;;;;;5017460;28;20814;-72
2024/04/03 05:59:45;;;;;;;7.23;1.67;;;10.60;65.40;;;;;;5008822;28;20434;-73
2024/04/03 06:02:12;;;;;;;3.20;1.67;;;10.60;65.70;;;;;;5016693;28;20467;-72
2024/04/03 06:04:38;;;;;;;4.43;1.30;;;10.70;65.60;;;;;;5015694;28;20464;-74
2024/04/03 06:07:04;;;;;;;3.10;1.70;;;10.70;66.30;;;;;;5019632;28;20954;-74
2024/04/03 06:09:30;;;;;;;6.73;1.33;;;10.60;68.30;;;;;;5018036;28;20440;-73
2024/04/03 06:11:57;;;;;;;4.03;1.10;;;10.50;68.90;;;;;;5011999;28;20205;-72
2024/04/03 06:14:23;;;;;;;5.93;1.90;;;10.40;69.40;;;;;;5011861;28;20475;-75
2024/04/03 06:16:48;;;;;;;3.57;1.40;;;10.40;69.20;;;;;;5010715;28;21025;-73
2024/04/03 06:19:15;;;;;;;2.60;1.10;;;10.50;69.40;;;;;;5007350;28;20194;-74
2024/04/03 06:21:41;;;;;;;2.40;1.50;;;10.60;69.80;;;;;;5010078;28;20476;-74
2024/04/03 06:24:07;;;;;;;7.53;1.63;;;10.60;68.80;;;;;;5011920;28;20995;-72
2024/04/03 06:26:36;;;;;;;1.93;1.40;;;10.80;68.90;;;;;;5025094;28;20421;-70
2024/04/03 06:29:03;;;;;;;3.70;1.40;;;10.80;68.80;;;;;;5018340;28;20186;-73
2024/04/03 06:31:29;;;;;;;4.37;1.27;;;10.90;68.60;;;;;;5016006;28;20811;-73
2024/04/03 06:34:02;;;;;;;4.20;1.87;;;10.90;68.30;;;;;;5014732;28;20433;-71
2024/04/03 06:36:31;;;;;;;2.70;1.40;;;11.00;67.60;;;;;;5014511;28;20499;-73
2024/04/03 06:38:56;;;;;;;6.73;1.60;;;11.10;67.50;;;;;;5020798;28;20504;-73
2024/04/03 06:41:22;;;;;;;3.70;1.57;;;11.00;67.70;;;;;;5013654;28;20477;-73
2024/04/03 06:43:48;;;;;;;3.27;1.40;;;11.20;66.90;;;;;;5010390;28;20197;-73
2024/04/03 06:46:14;;;;;;;3.00;1.70;;;11.20;66.90;;;;;;5012404;28;20262;-74
2024/04/03 06:48:40;;;;;;;3.70;1.67;;;11.20;67.00;;;;;;5008008;28;20178;-72
2024/04/03 06:51:05;;;;;;;3.73;1.70;;;11.30;67.50;;;;;;5007061;28;20207;-72
2024/04/03 06:53:32;;;;;;;3.20;1.57;;;11.30;67.30;;;;;;5014554;28;20436;-72
2024/04/03 06:56:00;;;;;;;2.27;1.50;;;11.30;66.60;;;;;;5010023;28;20193;-73
2024/04/03 06:58:44;;;;;;;3.17;1.30;;;11.10;67.00;;;;;;5010133;28;20444;-72
2024/04/03 07:01:11;;;;;;;3.00;1.70;;;11.10;67.50;;;;;;5003408;28;20469;-73
2024/04/03 07:03:37;;;;;;;7.00;1.77;;;11.10;67.50;;;;;;5005947;28;20424;-73
2024/04/03 07:06:03;;;;;;;3.20;1.40;;;11.00;67.70;;;;;;5007591;28;20787;-73
2024/04/03 07:08:28;;;;;;;2.57;1.60;;;11.00;68.00;;;;;;5008056;28;20412;-73
2024/04/03 07:10:54;;;;;;;3.47;2.60;;;10.90;68.20;;;;;;5004864;28;20421;-73
2024/04/03 07:13:23;;;;;;;4.60;1.50;;;10.80;68.30;;;;;;5005481;28;20182;-73
2024/04/03 07:15:49;;;;;;;5.03;2.00;;;10.90;68.30;;;;;;5011261;28;20656;-73
2024/04/03 07:18:16;;;;;;;2.90;1.40;;;10.80;68.30;;;;;;5010121;28;20473;-74
2024/04/03 07:20:41;;;;;;;2.90;1.50;;;10.80;68.20;;;;;;5007159;28;20421;-73
2024/04/03 07:23:08;;;;;;;5.27;1.67;;;10.90;68.20;;;;;;5006743;28;20456;-73
2024/04/03 07:25:33;;;;;;;5.33;1.40;;;10.90;68.30;;;;;;5014561;28;20684;-74
2024/04/03 07:28:11;;;;;;;2.20;1.23;;;11.00;68.20;;;;;;5005378;28;20479;-73
2024/04/03 07:30:39;;;;;;;9.43;2.47;;;11.00;68.20;;;;;;5011555;28;20189;-74
2024/04/03 07:33:08;;;;;;;5.87;2.83;;;11.00;68.30;;;;;;5009734;28;20440;-73
2024/04/03 07:35:34;;;;;;;6.60;2.17;;;11.00;68.30;;;;;;5016235;28;20492;-72
2024/04/03 07:38:00;;;;;;;6.03;2.03;;;11.20;68.50;;;;;;5015754;28;20526;-74
2024/04/03 07:40:26;;;;;;;3.17;1.60;;;11.20;67.90;;;;;;5005846;28;20714;-74
2024/04/03 07:42:51;;;;;;;5.93;1.97;;;11.20;67.90;;;;;;5001561;28;20209;-73
2024/04/03 07:45:17;;;;;;;3.70;1.70;;;11.30;68.00;;;;;;5009138;28;20440;-74
2024/04/03 07:47:43;;;;;;;2.77;1.63;;;11.30;67.90;;;;;;5010989;28;20730;-71
2024/04/03 07:50:08;;;;;;;3.20;1.47;;;11.40;68.00;;;;;;5011291;28;20600;-74
2024/04/03 07:52:38;;;;;;;11.63;2.40;;;11.50;68.00;;;;;;5005613;28;20206;-74
2024/04/03 07:55:07;;;;;;;4.07;1.80;;;11.60;67.90;;;;;;5011172;28;20217;-73
2024/04/03 07:57:34;;;;;;;3.07;2.00;;;11.50;67.90;;;;;;5012774;28;20476;-74
2024/04/03 08:00:03;;;;;;;2.80;1.50;;;11.70;67.90;;;;;;5011197;28;20489;-73
2024/04/03 08:02:29;;;;;;;2.70;1.77;;;11.70;67.60;;;;;;5010780;28;20460;-73
2024/04/03 08:04:54;;;;;;;4.43;2.10;;;11.80;67.70;;;;;;5019291;28;20515;-72
2024/04/03 08:07:20;;;;;;;3.20;1.70;;;12.00;67.60;;;;;;5019305;28;20175;-73
2024/04/03 08:09:45;;;;;;;3.73;1.60;;;12.00;67.50;;;;;;5018322;28;20277;-74
2024/04/03 08:12:11;;;;;;;2.37;1.50;;;12.20;67.20;;;;;;5010580;28;20640;-73
2024/04/03 08:14:36;;;;;;;5.00;1.50;;;12.20;66.70;;;;;;5014050;28;20255;-74
2024/04/03 08:17:02;;;;;;;1.70;1.27;;;12.20;66.40;;;;;;5008866;28;20218;-72
2024/04/03 08:19:28;;;;;;;3.77;1.37;;;12.20;66.90;;;;;;5013728;28;20193;-73
2024/04/03 08:21:53;;;;;;;2.67;1.60;;;12.30;67.00;;;;;;5006645;28;20224;-74
2024/04/03 08:24:19;;;;;;;2.63;1.30;;;12.60;66.40;;;;;;5012687;28;20189;-73
2024/04/03 08:26:45;;;;;;;3.00;1.50;;;12.90;65.70;;;;;;5012636;28;20204;-73
2024/04/03 08:29:12;;;;;;;2.53;1.60;;;13.00;64.80;;;;;;5012747;28;20247;-74
2024/04/03 08:31:38;;;;;;;3.00;1.60;;;13.10;64.80;;;;;;5004818;28;20459;-78
2024/04/03 08:34:03;;;;;;;2.27;1.40;;;13.10;65.00;;;;;;5008005;28;20934;-73
2024/04/03 08:36:29;;;;;;;2.83;1.60;;;13.40;64.50;;;;;;5023846;28;20214;-71
2024/04/03 08:38:55;;;;;;;4.07;1.70;;;13.60;64.20;;;;;;5019672;28;20206;-72
2024/04/03 08:41:20;;;;;;;1.70;1.10;;;13.70;62.90;;;;;;5000660;28;20253;-74
2024/04/03 08:43:51;;;;;;;3.37;1.53;;;13.80;62.90;;;;;;5006069;28;21295;-74
2024/04/03 08:46:18;;;;;;;3.87;1.20;;;13.90;62.20;;;;;;4999422;28;20278;-73
2024/04/03 08:48:46;;;;;;;2.50;0.90;;;13.70;61.70;;;;;;5014693;28;20944;-74
2024/04/03 08:51:14;;;;;;;2.07;1.20;;;13.50;62.30;;;;;;5019224;28;20508;-73
2024/04/03 08:53:43;;;;;;;3.07;1.60;;;13.70;62.30;;;;;;5008762;28;20512;-73
2024/04/03 08:56:12;;;;;;;1.77;1.00;;;13.90;62.20;;;;;;5012123;28;20433;-74
2024/04/03 08:58:37;;;;;;;5.80;1.67;;;14.00;61.20;;;;;;5017725;28;20417;-71
2024/04/03 09:01:05;;;;;;;4.83;1.70;;;13.80;61.70;;;;;;5013854;28;20961;-76
2024/04/03 09:03:30;;;;;;;1.77;1.07;;;13.70;62.20;;;;;;5013209;28;20186;-73
2024/04/03 09:05:56;;;;;;;1.77;1.17;;;13.60;62.20;;;;;;5014186;28;20943;-75
2024/04/03 09:08:22;;;;;;;3.27;1.37;;;13.60;62.00;;;;;;5009112;28;20194;-72
2024/04/03 09:10:49;;;;;;;1.53;0.90;;;13.80;62.30;;;;;;5015539;28;20182;-73
2024/04/03 09:13:16;;;;;;;2.10;1.10;;;14.00;62.00;;;;;;5010064;28;20569;-73
2024/04/03 09:15:42;;;;;;;2.40;1.40;;;14.20;62.00;;;;;;5016287;28;20839;-74
2024/04/03 09:18:09;;;;;;;4.83;1.50;;;14.30;61.60;;;;;;5012189;28;20477;-72
2024/04/03 09:20:38;;;;;;;1.73;1.00;;;14.60;61.30;;;;;;5009533;28;20441;-74
2024/04/03 09:23:07;;;;;;;3.30;1.23;;;14.70;61.00;;;;;;5009724;28;20444;-73
2024/04/03 09:25:34;;;;;;;2.70;1.60;;;14.90;61.00;;;;;;5014351;28;20498;-74
2024/04/03 09:28:05;;;;;;;2.50;1.33;;;14.90;61.00;;;;;;5010711;28;20938;-73
2024/04/03 09:30:36;;;;;;;2.97;1.40;;;15.00;60.30;;;;;;5009036;28;20454;-73
2024/04/03 09:33:04;;;;;;;2.73;1.50;;;14.90;59.70;;;;;;5000449;28;20474;-73
2024/04/03 09:35:32;;;;;;;3.07;1.40;;;14.90;60.10;;;;;;5009313;28;20445;-73
2024/04/03 09:37:58;;;;;;;6.27;2.07;;;14.70;61.20;;;;;;5008680;28;20541;-72
2024/04/03 09:40:26;;;;;;;2.20;1.50;;;14.60;61.60;;;;;;5010639;28;20509;-72
2024/04/03 09:43:09;;;;;;;5.77;1.80;;;14.70;61.90;;;;;;5007945;28;20587;-71
2024/04/03 09:45:35;;;;;;;5.30;1.30;;;14.90;61.00;;;;;;5008878;28;20437;-72
2024/04/03 09:48:04;;;;;;;1.80;1.20;;;14.90;61.30;;;;;;5005510;28;20448;-72
2024/04/03 09:50:49;;;;;;;2.17;1.50;;;15.10;60.70;;;;;;5008234;28;20668;-73
2024/04/03 09:53:25;;;;;;;6.10;1.90;;;15.10;61.30;;;;;;5009927;28;20554;-74
2024/04/03 09:55:52;;;;;;;9.60;2.00;;;15.40;60.40;;;;;;5008608;28;20865;-74
2024/04/03 09:58:20;;;;;;;3.53;1.63;;;15.10;60.10;;;;;;5002798;28;20482;-72
2024/04/03 10:00:58;;;;;;;5.83;1.40;;;15.00;61.00;;;;;;5008538;28;20810;-71
2024/04/03 10:03:27;;;;;;;1.80;1.10;;;15.20;60.30;;;;;;5010980;28;20439;-72
2024/04/03 10:06:02;;;;;;;1.73;1.10;;;15.30;59.10;;;;;;5007213;28;20422;-73
2024/04/03 10:08:35;;;;;;;1.93;1.20;;;15.20;57.60;;;;;;5008660;28;20933;-70
2024/04/03 10:11:08;;;;;;;2.60;1.00;;;15.10;57.40;;;;;;5004027;28;21006;-74
2024/04/03 10:13:35;;;;;;;1.73;1.10;;;14.80;57.40;;;;;;5007014;28;20462;-73
2024/04/03 10:16:06;;;;;;;1.90;1.10;;;14.80;57.60;;;;;;5005904;28;20464;-73
2024/04/03 10:18:47;;;;;;;2.30;1.03;;;14.70;58.10;;;;;;5007061;28;20438;-73
2024/04/03 10:21:13;;;;;;;1.73;1.00;;;14.80;58.40;;;;;;5004929;28;20839;-71
2024/04/03 10:23:49;;;;;;;2.40;1.07;;;14.80;58.70;;;;;;5009654;28;20499;-75
2024/04/03 10:26:17;;;;;;;1.50;0.90;;;14.70;59.60;;;;;;5010750;28;20463;-73
2024/04/03 10:28:45;;;;;;;1.67;0.83;;;14.40;62.80;;;;;;5014016;28;20428;-73
2024/04/03 10:31:17;;;;;;;3.27;0.90;;;13.90;65.00;;;;;;5007381;28;20457;-73
2024/04/03 10:33:43;;;;;;;1.60;0.93;;;13.60;66.40;;;;;;5011914;28;20455;-71
2024/04/03 10:36:09;;;;;;;2.07;1.00;;;13.50;65.70;;;;;;5008223;28;20942;-74
2024/04/03 10:38:36;;;;;;;1.80;1.00;;;13.50;66.40;;;;;;5010693;28;20463;-73
2024/04/03 10:41:02;;;;;;;1.00;0.70;;;13.40;66.40;;;;;;5009334;28;20441;-75
2024/04/03 10:43:27;;;;;;;2.13;0.70;;;13.40;66.60;;;;;;5003576;28;20618;-72
2024/04/03 10:45:53;;;;;;;1.53;0.90;;;13.50;67.20;;;;;;5007367;28;20519;-74
2024/04/03 10:48:22;;;;;;;1.50;1.00;;;13.50;67.20;;;;;;5012424;28;20195;-73
2024/04/03 10:50:48;;;;;;;1.97;0.97;;;13.50;67.50;;;;;;5020171;28;20190;-71
2024/04/03 10:53:14;;;;;;;2.90;0.87;;;13.50;66.70;;;;;;5018077;28;20456;-72
2024/04/03 10:55:40;;;;;;;3.80;0.73;;;13.40;67.50;;;;;;5022031;28;20190;-73
2024/04/03 10:58:07;;;;;;;2.77;0.80;;;13.50;67.60;;;;;;5019632;28;20469;-74
2024/04/03 11:00:41;;;;;;;1.40;0.90;;;13.60;67.20;;;;;;5015173;28;20432;-73
2024/04/03 11:03:08;;;;;;;2.90;1.10;;;13.50;67.20;;;;;;5012625;28;20444;-72
2024/04/03 11:05:36;;;;;;;3.43;0.70;;;13.60;67.00;;;;;;5018401;28;20533;-73
2024/04/03 11:08:03;;;;;;;1.50;0.80;;;13.50;66.90;;;;;;5013542;28;20484;-74
2024/04/03 11:10:30;;;;;;;1.27;0.77;;;13.50;67.20;;;;;;5011338;28;20512;-71
2024/04/03 11:13:06;;;;;;;1.27;0.70;;;13.70;66.90;;;;;;5010220;28;20530;-73
2024/04/03 11:15:33;;;;;;;1.00;0.77;;;13.90;66.00;;;;;;5016200;28;20538;-73
2024/04/03 11:17:59;;;;;;;3.10;1.10;;;14.00;65.80;;;;;;5009943;28;20556;-73
2024/04/03 11:20:25;;;;;;;1.50;0.80;;;13.90;65.70;;;;;;5003796;28;20446;-72
2024/04/03 11:22:56;;;;;;;1.30;0.80;;;13.70;66.10;;;;;;5001398;28;20481;-73
2024/04/03 11:25:32;;;;;;;1.00;0.70;;;13.60;66.70;;;;;;5004458;28;20453;-72
2024/04/03 11:28:00;;;;;;;1.00;0.77;;;13.70;66.30;;;;;;5009578;28;20436;-72
2024/04/03 11:30:26;;;;;;;1.40;0.80;;;13.60;66.00;;;;;;5006171;28;20531;-71
2024/04/03 11:32:52;;;;;;;1.10;0.70;;;13.50;65.80;;;;;;5001257;28;20507;-73
2024/04/03 11:35:18;;;;;;;2.43;0.67;;;13.50;65.80;;;;;;5003396;28;20503;-73
2024/04/03 11:37:45;;;;;;;1.10;0.70;;;13.40;66.00;;;;;;5006662;28;20484;-72
2024/04/03 11:40:10;;;;;;;2.10;1.00;;;13.40;66.40;;;;;;5008104;28;20199;-72
2024/04/03 11:42:36;;;;;;;0.90;0.67;;;13.50;66.70;;;;;;4999799;28;20507;-73
2024/04/03 11:45:05;;;;;;;4.30;1.17;;;13.50;66.70;;;;;;5009242;28;20196;-74
2024/04/03 11:47:32;;;;;;;3.47;0.77;;;13.40;67.60;;;;;;5009399;28;20202;-73
2024/04/03 11:49:59;;;;;;;1.97;0.70;;;13.20;68.20;;;;;;5007578;28;20437;-73
2024/04/03 11:52:25;;;;;;;1.53;0.90;;;13.10;68.20;;;;;;5000918;28;20519;-73
2024/04/03 11:54:51;;;;;;;1.87;1.00;;;13.00;68.30;;;;;;5004306;28;20417;-73
2024/04/03 11:57:16;;;;;;;1.90;0.83;;;13.00;68.60;;;;;;5007507;28;20993;-73
2024/04/03 11:59:42;;;;;;;3.17;0.70;;;13.20;68.60;;;;;;5009001;28;20182;-73
2024/04/03 12:02:08;;;;;;;2.00;0.97;;;13.30;68.20;;;;;;5003871;28;20635;-72
2024/04/03 12:04:34;;;;;;;2.10;0.83;;;13.40;68.30;;;;;;5006002;28;20182;-73
2024/04/03 12:06:59;;;;;;;1.07;0.87;;;13.50;68.30;;;;;;5006149;28;20190;-73
2024/04/03 12:09:25;;;;;;;1.67;1.13;;;13.50;68.20;;;;;;5014490;28;20594;-73
2024/04/03 12:11:51;;;;;;;1.70;0.87;;;13.50;68.30;;;;;;5007804;28;20206;-72
2024/04/03 12:14:17;;;;;;;1.47;0.70;;;13.50;68.00;;;;;;5017364;28;20185;-73
2024/04/03 12:16:42;;;;;;;1.83;0.87;;;13.40;68.60;;;;;;5012324;28;20225;-74
2024/04/03 12:19:16;;;;;;;1.60;1.00;;;13.30;68.60;;;;;;5010336;28;20220;-74
2024/04/03 12:21:43;;;;;;;1.60;0.70;;;13.10;68.80;;;;;;5004490;28;20785;-72
2024/04/03 12:24:13;;;;;;;0.97;0.63;;;12.80;69.80;;;;;;5010012;28;20543;-74
2024/04/03 12:26:39;;;;;;;1.77;0.90;;;12.90;70.80;;;;;;5010726;28;20511;-73
2024/04/03 12:29:06;;;;;;;2.70;1.10;;;13.10;70.40;;;;;;5005172;28;20445;-72
2024/04/03 12:31:31;;;;;;;1.40;0.97;;;13.20;70.20;;;;;;5006883;28;20464;-73
2024/04/03 12:33:58;;;;;;;3.20;0.90;;;13.20;69.80;;;;;;5010841;28;21016;-72
2024/04/03 12:36:24;;;;;;;1.50;0.90;;;12.90;69.50;;;;;;5009800;28;20281;-74
2024/04/03 12:38:49;;;;;;;1.63;0.80;;;12.70;70.80;;;;;;5012475;28;20516;-73
2024/04/03 12:41:15;;;;;;;1.00;0.60;;;12.80;71.40;;;;;;5003496;28;20217;-72
2024/04/03 12:43:40;;;;;;;2.33;0.90;;;12.80;71.40;;;;;;4999882;28;21141;-73
2024/04/03 12:46:09;;;;;;;1.00;0.70;;;12.70;71.30;;;;;;5004717;28;20714;-73
2024/04/03 12:48:35;;;;;;;2.00;0.90;;;12.70;71.40;;;;;;5011021;28;20206;-74
2024/04/03 12:51:01;;;;;;;2.40;0.80;;;12.70;71.10;;;;;;5011631;28;20444;-76